createdAt,value
2022-09-13T00:02:01.513Z,33.13
2022-09-13T00:04:27.921Z,36.63
2022-09-13T00:06:54.319Z,39.20
2022-09-13T00:09:20.757Z,41.87
2022-09-13T00:11:47.166Z,40.40
2022-09-13T00:16:40.022Z,34.03
2022-09-13T00:23:59.346Z,29.63
2022-09-13T00:26:28.180Z,28.80
2022-09-13T00:28:57.458Z,28.10
2022-09-13T00:31:26.184Z,26.63
2022-09-13T00:33:52.671Z,24.10
2022-09-13T00:36:19.449Z,24.97
2022-09-13T00:38:45.847Z,24.23
2022-09-13T00:41:15.993Z,24.87
2022-09-13T00:43:55.695Z,26.07
2022-09-13T00:46:27.801Z,24.43
2022-09-13T00:49:00.656Z,24.40
2022-09-13T00:51:28.387Z,25.93
2022-09-13T00:53:57.433Z,26.70
2022-09-13T00:56:33.901Z,27.23
2022-09-13T00:59:06.210Z,27.33
2022-09-13T01:01:40.185Z,27.90
2022-09-13T01:04:10.754Z,29.20
2022-09-13T01:06:40.964Z,26.00
2022-09-13T01:09:07.858Z,29.17
2022-09-13T01:11:40.467Z,28.87
2022-09-13T01:14:08.713Z,30.17
2022-09-13T01:16:36.060Z,28.03
2022-09-13T01:19:03.021Z,34.90
2022-09-13T01:22:00.388Z,31.67
2022-09-13T01:25:05.167Z,29.40
2022-09-13T01:27:40.864Z,27.83
2022-09-13T01:30:13.245Z,25.33
2022-09-13T01:32:50.669Z,31.03
2022-09-13T01:35:47.573Z,27.93
2022-09-13T01:38:19.949Z,27.63
2022-09-13T01:41:07.293Z,25.17
2022-09-13T01:43:42.295Z,24.93
2022-09-13T01:46:25.370Z,27.43
2022-09-13T01:49:02.527Z,25.00
2022-09-13T01:51:39.424Z,29.23
2022-09-13T01:54:20.397Z,25.23
2022-09-13T01:57:00.538Z,31.40
2022-09-13T01:59:46.415Z,25.80
2022-09-13T02:02:22.418Z,23.03
2022-09-13T02:04:58.707Z,30.60
2022-09-13T02:07:32.774Z,29.20
2022-09-13T02:10:05.261Z,24.20
2022-09-13T02:12:36.208Z,26.43
2022-09-13T02:15:16.045Z,25.70
2022-09-13T02:17:49.357Z,25.97
2022-09-13T02:20:22.706Z,24.33
2022-09-13T02:22:54.648Z,25.03
2022-09-13T02:25:24.799Z,22.97
2022-09-13T02:27:56.170Z,8.87
2022-09-13T02:30:22.610Z,4.90
2022-09-13T02:33:00.862Z,3.87
2022-09-13T02:35:38.577Z,6.23
2022-09-13T02:38:10.976Z,1.50
2022-09-13T02:40:48.190Z,4.17
2022-09-13T02:43:20.258Z,4.00
2022-09-13T02:45:57.403Z,2.93
2022-09-13T02:48:51.994Z,1.80
2022-09-13T02:51:29.081Z,2.90
2022-09-13T02:54:19.516Z,9.03
2022-09-13T02:57:05.717Z,3.43
2022-09-13T02:59:32.437Z,4.03
2022-09-13T03:01:58.838Z,4.17
2022-09-13T03:04:26.981Z,3.03
2022-09-13T03:06:53.380Z,8.77
2022-09-13T03:09:20.741Z,1.93
2022-09-13T03:12:14.493Z,6.90
2022-09-13T03:15:11.617Z,8.77
2022-09-13T03:18:07.304Z,4.73
2022-09-13T03:21:11.079Z,7.30
2022-09-13T03:24:00.534Z,5.50
2022-09-13T03:27:01.609Z,3.60
2022-09-13T03:29:40.044Z,4.13
2022-09-13T03:32:18.724Z,2.50
2022-09-13T03:34:45.072Z,4.73
2022-09-13T03:37:27.708Z,3.97
2022-09-13T03:40:07.702Z,6.53
2022-09-13T03:42:37.105Z,5.80
2022-09-13T03:45:05.939Z,5.57
2022-09-13T03:47:35.264Z,4.10
2022-09-13T03:50:02.777Z,5.00
2022-09-13T03:52:30.224Z,3.37
2022-09-13T03:54:58.100Z,2.77
2022-09-13T03:57:24.455Z,6.23
2022-09-13T03:59:56.607Z,3.93
2022-09-13T04:02:24.855Z,4.60
2022-09-13T04:04:51.554Z,4.97
2022-09-13T04:07:23.107Z,4.67
2022-09-13T04:09:49.950Z,5.13
2022-09-13T04:12:18.551Z,5.13
2022-09-13T04:14:45.076Z,4.83
2022-09-13T04:17:12.449Z,4.10
2022-09-13T04:19:38.942Z,2.87
2022-09-13T04:22:05.299Z,7.90
2022-09-13T04:24:32.153Z,7.67
2022-09-13T04:26:58.875Z,3.50
2022-09-13T04:29:26.470Z,4.27
2022-09-13T04:31:54.639Z,7.73
2022-09-13T04:34:21.719Z,6.73
2022-09-13T04:36:48.482Z,3.90
2022-09-13T04:39:14.940Z,4.57
2022-09-13T04:41:42.478Z,4.63
2022-09-13T04:44:08.906Z,7.57
2022-09-13T04:46:35.337Z,3.33
2022-09-13T04:49:01.741Z,5.30
2022-09-13T04:51:28.099Z,6.73
2022-09-13T04:53:55.583Z,4.50
2022-09-13T04:56:23.371Z,7.63
2022-09-13T04:58:54.795Z,6.00
2022-09-13T05:01:25.876Z,6.43
2022-09-13T05:03:54.310Z,6.10
2022-09-13T05:06:21.305Z,7.50
2022-09-13T05:08:52.898Z,18.63
2022-09-13T05:11:19.293Z,5.87
2022-09-13T05:13:49.618Z,5.30
2022-09-13T05:16:16.082Z,9.63
2022-09-13T05:18:45.274Z,7.20
2022-09-13T05:21:11.844Z,7.03
2022-09-13T05:23:38.412Z,6.83
2022-09-13T05:26:06.108Z,4.03
2022-09-13T05:28:34.437Z,4.60
2022-09-13T05:31:03.561Z,5.57
2022-09-13T05:33:32.618Z,5.30
2022-09-13T05:35:59.037Z,7.73
2022-09-13T05:38:25.933Z,6.60
2022-09-13T05:40:57.189Z,6.83
2022-09-13T05:43:28.554Z,6.37
2022-09-13T05:46:10.829Z,6.27
2022-09-13T05:48:37.721Z,4.73
2022-09-13T05:51:09.620Z,6.83
2022-09-13T05:53:37.758Z,8.53
2022-09-13T05:56:04.217Z,6.57
2022-09-13T05:58:30.561Z,10.43
2022-09-13T06:00:57.739Z,3.63
2022-09-13T06:03:24.437Z,8.03
2022-09-13T06:05:55.213Z,2.73
2022-09-13T06:08:23.222Z,5.70
2022-09-13T06:10:56.681Z,7.03
2022-09-13T06:13:24.321Z,6.10
2022-09-13T06:15:51.557Z,6.13
2022-09-13T06:18:18.787Z,8.53
2022-09-13T06:20:45.687Z,9.67
2022-09-13T06:23:12.934Z,6.60
2022-09-13T06:25:39.311Z,5.37
2022-09-13T06:28:05.822Z,4.90
2022-09-13T06:30:32.364Z,4.40
2022-09-13T06:32:59.016Z,5.47
2022-09-13T06:35:25.956Z,5.80
2022-09-13T06:37:56.098Z,4.70
2022-09-13T06:40:25.219Z,1.40
2022-09-13T06:42:51.808Z,4.47
2022-09-13T06:45:18.227Z,3.70
2022-09-13T06:47:44.738Z,3.87
2022-09-13T06:50:11.119Z,5.27
2022-09-13T06:52:37.458Z,2.30
2022-09-13T06:55:04.154Z,3.23
2022-09-13T06:57:30.892Z,7.13
2022-09-13T06:59:57.231Z,4.97
2022-09-13T07:02:23.703Z,7.00
2022-09-13T07:04:50.135Z,7.97
2022-09-13T07:07:16.468Z,9.70
2022-09-13T07:09:42.948Z,7.03
2022-09-13T07:12:09.898Z,4.13
2022-09-13T07:14:36.248Z,6.93
2022-09-13T07:17:02.824Z,3.60
2022-09-13T07:19:29.194Z,4.23
2022-09-13T07:21:56.508Z,3.17
2022-09-13T07:24:23.994Z,2.77
2022-09-13T07:26:51.905Z,2.30
2022-09-13T07:29:21.056Z,3.00
2022-09-13T07:31:49.466Z,3.97
2022-09-13T07:34:20.992Z,1.97
2022-09-13T07:36:48.010Z,2.90
2022-09-13T07:39:19.196Z,4.70
2022-09-13T07:41:48.102Z,2.50
2022-09-13T07:44:14.610Z,5.03
2022-09-13T07:46:41.728Z,1.93
2022-09-13T07:49:08.208Z,4.20
2022-09-13T07:51:36.751Z,6.67
2022-09-13T07:54:05.471Z,4.53
2022-09-13T07:56:34.248Z,4.13
2022-09-13T07:59:02.745Z,4.57
2022-09-13T08:01:38.092Z,5.10
2022-09-13T08:04:06.728Z,5.20
2022-09-13T08:06:35.051Z,3.80
2022-09-13T08:09:02.444Z,4.03
2022-09-13T08:11:34.388Z,4.87
2022-09-13T08:14:00.937Z,6.90
2022-09-13T08:16:28.548Z,4.50
2022-09-13T08:18:57.080Z,4.27
2022-09-13T08:21:24.479Z,5.60
2022-09-13T08:23:54.641Z,4.10
2022-09-13T08:26:21.006Z,3.90
2022-09-13T08:28:47.528Z,4.57
2022-09-13T08:31:15.964Z,5.37
2022-09-13T08:33:47.475Z,8.73
2022-09-13T08:36:15.594Z,4.23
2022-09-13T08:38:49.550Z,4.43
2022-09-13T08:41:37.241Z,5.83
2022-09-13T08:44:24.584Z,3.80
2022-09-13T08:46:55.995Z,3.90
2022-09-13T08:49:30.006Z,4.70
2022-09-13T08:52:01.038Z,5.87
2022-09-13T08:54:27.643Z,3.63
2022-09-13T08:57:29.671Z,4.00
2022-09-13T09:00:21.224Z,3.50
2022-09-13T09:03:14.337Z,4.70
2022-09-13T09:05:49.469Z,7.47
2022-09-13T09:08:25.274Z,5.37
2022-09-13T09:10:55.096Z,2.43
2022-09-13T09:13:52.491Z,5.57
2022-09-13T09:16:28.107Z,5.63
2022-09-13T09:18:58.722Z,6.37
2022-09-13T09:21:25.130Z,7.37
2022-09-13T09:23:53.469Z,6.20
2022-09-13T09:26:23.017Z,4.33
2022-09-13T09:29:19.697Z,6.30
2022-09-13T09:32:01.835Z,4.57
2022-09-13T09:34:47.230Z,6.67
2022-09-13T09:37:33.816Z,7.93
2022-09-13T09:40:02.299Z,3.40
2022-09-13T09:42:32.756Z,3.77
2022-09-13T09:45:33.158Z,6.90
2022-09-13T09:48:06.691Z,2.90
2022-09-13T09:50:40.000Z,6.00
2022-09-13T09:53:16.633Z,3.60
2022-09-13T09:56:00.800Z,4.23
2022-09-13T09:58:40.996Z,3.33
2022-09-13T10:01:22.046Z,3.73
2022-09-13T10:04:04.838Z,1.97
2022-09-13T10:06:32.235Z,3.97
2022-09-13T10:09:01.962Z,4.17
2022-09-13T10:12:04.167Z,7.27
2022-09-13T10:14:42.723Z,4.50
2022-09-13T10:17:14.900Z,4.47
2022-09-13T10:19:41.803Z,5.17
2022-09-13T10:22:12.903Z,6.00
2022-09-13T10:24:39.687Z,5.17
2022-09-13T10:27:28.467Z,5.70
2022-09-13T10:29:58.123Z,6.10
2022-09-13T10:32:25.021Z,2.77
2022-09-13T10:34:52.854Z,5.73
2022-09-13T10:37:22.976Z,6.63
2022-09-13T10:40:00.727Z,4.87
2022-09-13T10:42:29.026Z,2.63
2022-09-13T10:45:03.865Z,4.63
2022-09-13T10:47:34.409Z,4.07
2022-09-13T10:50:17.985Z,3.37
2022-09-13T10:53:04.855Z,2.70
2022-09-13T10:55:38.427Z,4.90
2022-09-13T10:58:04.787Z,3.50
2022-09-13T11:00:40.438Z,4.77
2022-09-13T11:03:21.145Z,8.73
2022-09-13T11:06:15.780Z,4.40
2022-09-13T11:09:21.872Z,3.10
2022-09-13T11:12:00.220Z,5.03
2022-09-13T11:14:35.585Z,10.63
2022-09-13T11:17:13.718Z,7.57
2022-09-13T11:20:15.547Z,8.57
2022-09-13T11:23:23.486Z,5.63
2022-09-13T11:26:19.650Z,6.20
2022-09-13T11:28:58.887Z,6.77
2022-09-13T11:31:51.890Z,5.03
2022-09-13T11:35:06.900Z,10.23
2022-09-13T11:37:45.127Z,4.07
2022-09-13T11:40:23.703Z,5.63
2022-09-13T11:43:12.859Z,9.43
2022-09-13T11:46:02.370Z,4.53
2022-09-13T11:48:47.359Z,6.43
2022-09-13T11:51:26.451Z,3.40
2022-09-13T11:53:59.761Z,5.17
2022-09-13T11:57:21.491Z,5.77
2022-09-13T11:59:55.878Z,6.97
2022-09-13T12:02:34.470Z,3.37
2022-09-13T12:05:23.873Z,4.97
2022-09-13T12:07:58.010Z,4.47
2022-09-13T12:10:33.488Z,6.93
2022-09-13T12:13:02.560Z,7.17
2022-09-13T12:15:40.022Z,5.80
2022-09-13T12:18:28.480Z,6.80
2022-09-13T12:21:04.742Z,7.33
2022-09-13T12:23:35.983Z,6.03
2022-09-13T12:26:08.933Z,6.33
2022-09-13T12:29:05.557Z,9.67
2022-09-13T12:31:32.267Z,10.50
2022-09-13T12:34:01.075Z,6.70
2022-09-13T12:36:39.385Z,5.70
2022-09-13T12:39:27.889Z,6.40
2022-09-13T12:42:09.533Z,6.83
2022-09-13T12:45:07.000Z,9.73
2022-09-13T12:47:48.728Z,4.63
2022-09-13T12:50:44.280Z,8.50
2022-09-13T12:53:42.139Z,6.33
2022-09-13T12:56:32.755Z,7.87
2022-09-13T12:59:17.567Z,6.87
2022-09-13T13:01:49.800Z,4.63
2022-09-13T13:04:24.971Z,8.80
2022-09-13T13:07:01.846Z,5.63
2022-09-13T13:09:37.183Z,6.60
2022-09-13T13:12:03.905Z,3.83
2022-09-13T13:14:39.480Z,6.27
2022-09-13T13:17:38.351Z,8.63
2022-09-13T13:20:38.815Z,5.27
2022-09-13T13:23:28.197Z,7.10
2022-09-13T13:26:44.836Z,5.93
2022-09-13T13:29:24.643Z,7.43
2022-09-13T13:32:00.014Z,5.97
2022-09-13T13:34:49.830Z,4.67
2022-09-13T13:37:16.293Z,7.37
2022-09-13T13:39:47.625Z,4.83
2022-09-13T13:42:14.003Z,5.40
2022-09-13T13:44:43.449Z,4.93
2022-09-13T13:47:09.799Z,5.17
2022-09-13T13:49:39.178Z,5.37
2022-09-13T13:52:08.567Z,7.20
2022-09-13T13:54:47.065Z,5.03
2022-09-13T13:57:23.182Z,6.33
2022-09-13T13:59:51.806Z,4.07
2022-09-13T14:02:23.540Z,9.03
2022-09-13T14:05:08.112Z,8.10
2022-09-13T14:07:58.963Z,2.93
2022-09-13T14:10:32.870Z,6.03
2022-09-13T14:13:39.461Z,4.63
2022-09-13T14:16:33.070Z,4.97
2022-09-13T14:19:26.559Z,5.30
2022-09-13T14:22:11.756Z,8.17
2022-09-13T14:24:39.843Z,7.03
2022-09-13T14:27:09.447Z,3.87
2022-09-13T14:29:36.188Z,6.60
2022-09-13T14:32:08.033Z,5.43
2022-09-13T14:34:37.526Z,4.93
2022-09-13T14:37:17.709Z,6.43
2022-09-13T14:40:18.513Z,6.23
2022-09-13T14:42:47.838Z,4.50
2022-09-13T14:45:20.319Z,11.87
2022-09-13T14:48:07.181Z,3.47
2022-09-13T14:50:39.655Z,7.13
2022-09-13T14:53:12.102Z,6.57
2022-09-13T14:55:59.782Z,3.93
2022-09-13T14:58:38.473Z,6.93
2022-09-13T15:01:10.629Z,3.93
2022-09-13T15:03:40.995Z,4.90
2022-09-13T15:06:07.627Z,8.80
2022-09-13T15:08:34.010Z,6.30
2022-09-13T15:11:02.359Z,4.23
2022-09-13T15:13:29.085Z,5.23
2022-09-13T15:15:55.931Z,4.37
2022-09-13T15:18:36.805Z,3.53
2022-09-13T15:21:05.863Z,7.37
2022-09-13T15:23:35.509Z,2.93
2022-09-13T15:26:06.968Z,4.33
2022-09-13T15:28:48.490Z,2.67
2022-09-13T15:31:26.750Z,2.97
2022-09-13T15:34:18.247Z,5.40
2022-09-13T15:36:45.936Z,5.30
2022-09-13T15:39:18.387Z,2.83
2022-09-13T15:41:53.442Z,6.33
2022-09-13T15:44:23.567Z,6.87
2022-09-13T15:46:52.362Z,4.40
2022-09-13T15:49:21.967Z,3.97
2022-09-13T15:51:54.215Z,7.60
2022-09-13T15:54:20.698Z,4.50
2022-09-13T15:56:47.782Z,7.70
2022-09-13T15:59:16.040Z,12.73
2022-09-13T16:01:43.925Z,4.40
2022-09-13T16:04:11.317Z,5.37
2022-09-13T16:06:38.551Z,4.67
2022-09-13T16:09:15.939Z,4.20
2022-09-13T16:11:42.488Z,2.67
2022-09-13T16:14:08.825Z,5.27
2022-09-13T16:16:35.209Z,4.77
2022-09-13T16:19:01.617Z,5.10
2022-09-13T16:21:27.971Z,5.20
2022-09-13T16:23:54.352Z,7.30
2022-09-13T16:26:21.069Z,4.37
2022-09-13T16:28:47.590Z,6.83
2022-09-13T16:31:14.116Z,3.07
2022-09-13T16:33:40.766Z,8.07
2022-09-13T16:36:07.437Z,6.13
2022-09-13T16:38:33.870Z,2.27
2022-09-13T16:41:00.222Z,4.73
2022-09-13T16:43:26.645Z,4.50
2022-09-13T16:45:53.173Z,6.70
2022-09-13T16:48:19.536Z,5.27
2022-09-13T16:50:45.895Z,6.90
2022-09-13T16:53:12.273Z,2.67
2022-09-13T16:55:38.701Z,6.37
2022-09-13T16:58:05.126Z,3.57
2022-09-13T17:00:31.544Z,2.80
2022-09-13T17:02:58.556Z,2.03
2022-09-13T17:05:25.573Z,5.33
2022-09-13T17:07:52.911Z,4.03
2022-09-13T17:10:19.915Z,3.73
2022-09-13T17:12:46.586Z,5.67
2022-09-13T17:15:13.257Z,2.77
2022-09-13T17:17:39.637Z,4.70
2022-09-13T17:20:09.586Z,3.23
2022-09-13T17:22:36.749Z,2.97
2022-09-13T17:25:04.931Z,5.87
2022-09-13T17:27:31.329Z,2.37
2022-09-13T17:29:57.685Z,2.23
2022-09-13T17:32:24.041Z,2.60
2022-09-13T17:34:50.413Z,1.57
2022-09-13T17:37:16.797Z,3.53
2022-09-13T17:39:43.247Z,6.03
2022-09-13T17:42:09.777Z,3.73
2022-09-13T17:44:36.189Z,2.80
2022-09-13T17:47:02.582Z,2.37
2022-09-13T17:49:29.079Z,3.43
2022-09-13T17:51:55.435Z,5.40
2022-09-13T17:54:21.847Z,3.37
2022-09-13T17:56:50.240Z,6.57
2022-09-13T17:59:19.426Z,4.43
2022-09-13T18:01:48.630Z,2.20
2022-09-13T18:04:16.888Z,1.60
2022-09-13T18:06:43.270Z,4.87
2022-09-13T18:09:11.257Z,4.00
2022-09-13T18:11:37.932Z,4.20
2022-09-13T18:14:04.848Z,3.93
2022-09-13T18:16:31.806Z,3.33
2022-09-13T18:18:59.616Z,3.83
2022-09-13T18:21:26.971Z,2.80
2022-09-13T18:23:55.961Z,5.03
2022-09-13T18:26:23.712Z,4.77
2022-09-13T18:28:58.716Z,2.67
2022-09-13T18:31:25.478Z,1.13
2022-09-13T18:34:01.047Z,3.97
2022-09-13T18:36:28.701Z,5.43
2022-09-13T18:38:57.735Z,2.63
2022-09-13T18:41:26.766Z,4.83
2022-09-13T18:43:55.974Z,2.03
2022-09-13T18:46:25.821Z,2.63
2022-09-13T18:48:54.722Z,9.30
2022-09-13T18:51:23.281Z,5.07
2022-09-13T18:53:50.349Z,2.40
2022-09-13T18:56:19.916Z,1.87
2022-09-13T18:58:47.424Z,2.53
2022-09-13T19:01:22.502Z,2.30
2022-09-13T19:03:52.149Z,2.17
2022-09-13T19:06:22.194Z,3.00
2022-09-13T19:08:59.696Z,5.07
2022-09-13T19:11:46.430Z,3.13
2022-09-13T19:14:23.365Z,5.93
2022-09-13T19:16:56.697Z,3.70
2022-09-13T19:19:25.378Z,3.60
2022-09-13T19:21:52.510Z,4.60
2022-09-13T19:24:20.867Z,3.80
2022-09-13T19:26:52.160Z,4.67
2022-09-13T19:29:31.133Z,4.63
2022-09-13T19:31:59.399Z,5.87
2022-09-13T19:34:27.880Z,5.37
2022-09-13T19:36:56.810Z,3.10
2022-09-13T19:39:29.529Z,6.77
2022-09-13T19:41:59.433Z,6.50
2022-09-13T19:44:36.508Z,3.60
2022-09-13T19:49:53.554Z,4.53
2022-09-13T19:52:21.269Z,3.57
2022-09-13T19:54:50.451Z,6.67
2022-09-13T19:57:19.668Z,3.63
2022-09-13T19:59:50.420Z,8.00
2022-09-13T20:02:17.136Z,3.80
2022-09-13T20:04:46.652Z,3.30
2022-09-13T20:07:13.330Z,12.47
2022-09-13T20:09:42.673Z,4.07
2022-09-13T20:12:09.238Z,3.07
2022-09-13T20:14:35.684Z,4.50
2022-09-13T20:17:02.036Z,5.10
2022-09-13T20:19:49.308Z,6.47
2022-09-13T20:22:15.335Z,5.07
2022-09-13T20:24:43.037Z,6.27
2022-09-13T20:27:09.481Z,3.77
2022-09-13T20:29:36.983Z,5.00
2022-09-13T20:32:05.671Z,3.40
2022-09-13T20:34:32.102Z,7.10
2022-09-13T20:36:58.579Z,7.13
2022-09-13T20:39:25.009Z,3.37
2022-09-13T20:41:51.460Z,6.30
2022-09-13T20:44:17.975Z,4.43
2022-09-13T20:46:46.743Z,5.83
2022-09-13T20:49:13.261Z,5.07
2022-09-13T20:51:39.962Z,4.37
2022-09-13T20:54:07.212Z,2.57
2022-09-13T20:56:33.732Z,5.17
2022-09-13T20:59:00.633Z,3.10
2022-09-13T21:01:29.134Z,3.27
2022-09-13T21:03:56.025Z,3.77
2022-09-13T21:06:24.891Z,5.50
2022-09-13T21:08:52.688Z,5.20
2022-09-13T21:11:23.940Z,5.13
2022-09-13T21:13:53.823Z,5.93
2022-09-13T21:16:25.407Z,5.07
2022-09-13T21:18:53.248Z,11.13
2022-09-13T21:21:25.590Z,10.53
2022-09-13T21:23:52.996Z,10.50
2022-09-13T21:26:21.624Z,4.60
2022-09-13T21:28:48.279Z,5.87
2022-09-13T21:31:21.487Z,4.37
2022-09-13T21:33:49.454Z,4.97
2022-09-13T21:36:15.956Z,4.93
2022-09-13T21:38:42.352Z,3.63
2022-09-13T21:41:17.792Z,4.57
2022-09-13T21:43:44.994Z,7.13
2022-09-13T21:46:16.644Z,4.50
2022-09-13T21:48:52.008Z,6.73
2022-09-13T21:51:24.009Z,4.33
2022-09-13T21:53:57.526Z,6.27
2022-09-13T21:56:26.845Z,4.10
2022-09-13T21:59:04.462Z,3.50
2022-09-13T22:01:34.478Z,5.67
2022-09-13T22:04:02.033Z,12.17
2022-09-13T22:06:33.393Z,5.30
2022-09-13T22:09:02.653Z,6.33
2022-09-13T22:11:31.383Z,6.93
2022-09-13T22:13:58.960Z,4.50
2022-09-13T22:16:28.181Z,4.63
2022-09-13T22:18:57.495Z,6.20
2022-09-13T22:21:29.801Z,9.00
2022-09-13T22:23:56.605Z,7.90
2022-09-13T22:26:25.855Z,5.57
2022-09-13T22:28:53.645Z,7.93
2022-09-13T22:31:22.764Z,8.80
2022-09-13T22:33:50.201Z,7.43
2022-09-13T22:36:17.961Z,8.03
2022-09-13T22:38:46.305Z,4.67
2022-09-13T22:41:15.134Z,4.33
2022-09-13T22:43:42.254Z,6.23
2022-09-13T22:46:08.681Z,9.53
2022-09-13T22:48:35.343Z,7.57
2022-09-13T22:51:02.463Z,5.43
2022-09-13T22:53:28.923Z,6.37
2022-09-13T22:55:55.339Z,6.50
2022-09-13T22:58:21.685Z,5.13
2022-09-13T23:00:48.124Z,6.40
2022-09-13T23:03:14.759Z,5.77
2022-09-13T23:05:50.081Z,5.87
2022-09-13T23:08:16.701Z,4.07
2022-09-13T23:10:43.058Z,6.60
2022-09-13T23:13:09.406Z,7.37
2022-09-13T23:15:35.846Z,5.53
2022-09-13T23:18:02.231Z,5.70
2022-09-13T23:20:28.637Z,7.20
2022-09-13T23:22:55.059Z,6.57
2022-09-13T23:25:21.533Z,8.77
2022-09-13T23:27:47.924Z,4.93
2022-09-13T23:30:14.535Z,7.37
2022-09-13T23:32:40.961Z,6.87
2022-09-13T23:35:07.623Z,5.37
2022-09-13T23:37:34.091Z,6.07
2022-09-13T23:40:00.545Z,4.63
2022-09-13T23:42:27.212Z,4.93
2022-09-13T23:44:53.549Z,4.73
2022-09-13T23:47:19.892Z,6.20
2022-09-13T23:49:46.261Z,6.70
2022-09-13T23:52:12.665Z,7.97
2022-09-13T23:54:39.135Z,6.70
2022-09-13T23:57:05.684Z,8.00
2022-09-13T23:59:32.045Z,6.77
